Blodgett, OR (97326)

1:00 AM PST on December 06, 2016 (GMT -0800)
| | Change Station
Active Advisory: Winter Weather Advisory Active Notice: Public Information Statement

Elev -9999 ft 0.00 °N, 0.00 °E | Updated

Cloudy
Cloudy
34 °F
Feels Like 34 °F
N
3
Wind Variable Wind from SSE
Gusts mph

Today
High -- | Low -- °F
--% Chance of Precip.
Yesterday
High -- | Low -- °F
Precip. -- in
Pressure 30.02 in
Visibility 7.0 miles
Clouds Scattered Clouds 800 ft
Mostly Cloudy 2000 ft
Mostly Cloudy 3200 ft
Dew Point 32 °F
Humidity 93%
Rainfall --
Snow Depth Not available.
7:36 AM 4:33 PM
Waxing Crescent, 40% visible
METAR KONP 060855Z AUTO 00000KT 7SM RA SCT008 BKN020 BKN032 03/02 A3002 RMK AO2 P0004
Pressure 30.02 in
Visibility 7.0 miles
Clouds Scattered Clouds 800 ft
Mostly Cloudy 2000 ft
Mostly Cloudy 3200 ft
Dew Point 32 °F
Humidity 93%
Rainfall --
Snow Depth Not available.
7:36 AM 4:33 PM
Waxing Crescent, 40% visible
METAR KONP 060855Z AUTO 00000KT 7SM RA SCT008 BKN020 BKN032 03/02 A3002 RMK AO2 P0004

10-Day Weather Forecast

Almanac

Astronomy

Dec. 06, 2016 Rise Set
Actual Time
Civil Twilight
Nautical Twilight
Astronomical Twilight
Moon
Length of Visible Light
Length of Day
Tomorrow will be .
, % of the Moon is Illuminated

Today's Extremes

State Highs State Lows

Community

WunderPhotos

Upload Photos

1,955,935 photos uploaded!

WunderBlog® & News

Nearby

Air Quality

  Air Quality AQ Index Pollutant
Not available.

Snow Depth

Station Depth Elevation

Earthquake Activity

City Distance Mag. Time & Date
Minimum magnitude displayed is 2.5.

Coastal Water Temperatures

Place Temperature

Stations

Nearby Weather Stations

Station Location Temp. Windchill Dew Point Humidity Wind Precip. Elev Updated Type
                   

Watches & Warnings

Winter Weather Advisory
Issued: 9:01 PM PST Dec. 5, 2016 – National Weather Service

... Winter Weather Advisory remains in effect until 6 am PST
Tuesday for the central Oregon Coast Range...

A Winter Weather Advisory for snow remains in effect until 6 am
PST Tuesday.

* Timing... snow showers through early Tuesday morning.

* Snow levels... 700 feet.

* Accumulation... 2 to 5 inches.

Precautionary/preparedness actions...

A Winter Weather Advisory for snow means that periods of snow
will cause primarily travel difficulties. Be prepared for snow
covered roads and limited visibilities... and use caution while
driving.